sensor_id;sensor_type;location;lat;lon;timestamp;pressure;altitude;pressure_sealevel;temperature;humidity
64933;BME280;51446;53.850;10.662;2022-08-04T00:02:20;101354.34;;;21.54;80.16
64933;BME280;51446;53.850;10.662;2022-08-04T00:04:52;101354.34;;;21.54;80.63
64933;BME280;51446;53.850;10.662;2022-08-04T00:10:02;101360.03;;;21.79;79.57
64933;BME280;51446;53.850;10.662;2022-08-04T00:12:30;101353.09;;;21.71;79.40
64933;BME280;51446;53.850;10.662;2022-08-04T00:14:59;101358.63;;;21.61;79.55
64933;BME280;51446;53.850;10.662;2022-08-04T00:17:30;101355.22;;;21.55;80.05
64933;BME280;51446;53.850;10.662;2022-08-04T00:20:01;101355.03;;;21.64;80.11
64933;BME280;51446;53.850;10.662;2022-08-04T00:22:29;101347.03;;;21.64;79.87
64933;BME280;51446;53.850;10.662;2022-08-04T00:24:55;101349.91;;;21.53;79.94
64933;BME280;51446;53.850;10.662;2022-08-04T00:27:20;101357.75;;;21.62;79.56
64933;BME280;51446;53.850;10.662;2022-08-04T00:29:46;101348.88;;;21.60;79.97
64933;BME280;51446;53.850;10.662;2022-08-04T00:32:12;101345.53;;;21.47;80.63
64933;BME280;51446;53.850;10.662;2022-08-04T00:34:38;101349.06;;;21.49;80.44
64933;BME280;51446;53.850;10.662;2022-08-04T00:37:04;101349.53;;;21.26;81.95
64933;BME280;51446;53.850;10.662;2022-08-04T00:39:31;101342.38;;;21.28;81.98
64933;BME280;51446;53.850;10.662;2022-08-04T00:42:34;101345.13;;;21.24;82.47
64933;BME280;51446;53.850;10.662;2022-08-04T00:45:25;101345.53;;;21.47;81.06
64933;BME280;51446;53.850;10.662;2022-08-04T00:48:34;101343.84;;;21.45;81.55
64933;BME280;51446;53.850;10.662;2022-08-04T00:51:24;101339.75;;;21.25;82.02
64933;BME280;51446;53.850;10.662;2022-08-04T00:53:54;101337.94;;;21.27;82.20
64933;BME280;51446;53.850;10.662;2022-08-04T00:56:31;101351.34;;;21.24;82.78
64933;BME280;51446;53.850;10.662;2022-08-04T00:59:06;101345.97;;;21.26;82.35
64933;BME280;51446;53.850;10.662;2022-08-04T01:02:01;101349.84;;;21.09;83.28
64933;BME280;51446;53.850;10.662;2022-08-04T01:07:12;101331.47;;;20.94;84.34
64933;BME280;51446;53.850;10.662;2022-08-04T01:10:09;101329.53;;;21.02;83.84
64933;BME280;51446;53.850;10.662;2022-08-04T01:15:44;101332.97;;;21.09;83.33
64933;BME280;51446;53.850;10.662;2022-08-04T01:18:24;101331.28;;;21.05;83.79
64933;BME280;51446;53.850;10.662;2022-08-04T01:21:21;101330.16;;;21.17;82.09
64933;BME280;51446;53.850;10.662;2022-08-04T01:24:16;101325.16;;;20.98;83.34
64933;BME280;51446;53.850;10.662;2022-08-04T01:27:05;101326.78;;;21.07;83.72
64933;BME280;51446;53.850;10.662;2022-08-04T01:29:37;101318.13;;;21.41;81.08
64933;BME280;51446;53.850;10.662;2022-08-04T01:32:06;101323.28;;;21.48;79.47
64933;BME280;51446;53.850;10.662;2022-08-04T01:34:42;101315.13;;;21.56;79.42
64933;BME280;51446;53.850;10.662;2022-08-04T01:37:18;101318.75;;;21.55;78.65
64933;BME280;51446;53.850;10.662;2022-08-04T01:39:50;101315.50;;;21.39;80.39
64933;BME280;51446;53.850;10.662;2022-08-04T01:42:25;101318.25;;;21.33;81.04
64933;BME280;51446;53.850;10.662;2022-08-04T01:44:51;101314.84;;;21.26;81.56
64933;BME280;51446;53.850;10.662;2022-08-04T01:47:19;101312.78;;;20.95;82.88
64933;BME280;51446;53.850;10.662;2022-08-04T01:49:46;101313.72;;;20.91;83.05
64933;BME280;51446;53.850;10.662;2022-08-04T01:52:16;101305.81;;;20.87;83.25
64933;BME280;51446;53.850;10.662;2022-08-04T01:54:42;101311.97;;;20.92;83.03
64933;BME280;51446;53.850;10.662;2022-08-04T01:57:09;101317.91;;;21.06;82.31
64933;BME280;51446;53.850;10.662;2022-08-04T01:59:34;101314.88;;;21.25;80.67
64933;BME280;51446;53.850;10.662;2022-08-04T02:02:01;101305.81;;;21.34;80.44
64933;BME280;51446;53.850;10.662;2022-08-04T02:04:26;101305.63;;;21.43;79.75
64933;BME280;51446;53.850;10.662;2022-08-04T02:07:02;101305.34;;;21.58;78.44
64933;BME280;51446;53.850;10.662;2022-08-04T02:09:37;101302.88;;;21.46;77.46
64933;BME280;51446;53.850;10.662;2022-08-04T02:17:45;101302.72;;;21.55;79.17
64933;BME280;51446;53.850;10.662;2022-08-04T02:20:24;101303.47;;;21.62;77.64
64933;BME280;51446;53.850;10.662;2022-08-04T02:23:00;101305.34;;;21.58;77.67
64933;BME280;51446;53.850;10.662;2022-08-04T02:25:28;101302.44;;;21.68;77.16
64933;BME280;51446;53.850;10.662;2022-08-04T02:28:07;101296.28;;;21.65;77.17
64933;BME280;51446;53.850;10.662;2022-08-04T02:30:49;101293.91;;;21.50;77.39
64933;BME280;51446;53.850;10.662;2022-08-04T02:33:30;101301.06;;;21.90;75.79
64933;BME280;51446;53.850;10.662;2022-08-04T02:36:00;101302.25;;;21.77;76.58
64933;BME280;51446;53.850;10.662;2022-08-04T02:38:41;101292.72;;;21.65;76.83
64933;BME280;51446;53.850;10.662;2022-08-04T02:41:12;101296.03;;;21.76;76.24
64933;BME280;51446;53.850;10.662;2022-08-04T02:43:41;101300.28;;;21.85;75.33
64933;BME280;51446;53.850;10.662;2022-08-04T02:46:08;101306.06;;;21.65;76.50
64933;BME280;51446;53.850;10.662;2022-08-04T02:48:35;101296.56;;;21.52;76.44
64933;BME280;51446;53.850;10.662;2022-08-04T02:51:03;101299.09;;;21.58;76.36
64933;BME280;51446;53.850;10.662;2022-08-04T02:53:29;101288.53;;;21.53;76.31
64933;BME280;51446;53.850;10.662;2022-08-04T02:55:57;101293.34;;;21.34;76.69
64933;BME280;51446;53.850;10.662;2022-08-04T02:58:26;101285.22;;;21.40;77.16
64933;BME280;51446;53.850;10.662;2022-08-04T03:00:54;101281.34;;;21.57;76.81
64933;BME280;51446;53.850;10.662;2022-08-04T03:03:30;101281.03;;;21.71;76.14
64933;BME280;51446;53.850;10.662;2022-08-04T03:32:05;101285.09;;;21.01;76.53
64933;BME280;51446;53.850;10.662;2022-08-04T03:35:02;101284.31;;;20.46;80.20
64933;BME280;51446;53.850;10.662;2022-08-04T03:41:15;101290.34;;;21.06;78.67
64933;BME280;51446;53.850;10.662;2022-08-04T03:44:07;101292.09;;;21.08;77.48
64933;BME280;51446;53.850;10.662;2022-08-04T03:47:03;101295.66;;;21.09;76.61
64933;BME280;51446;53.850;10.662;2022-08-04T03:52:40;101301.88;;;20.58;78.56
64933;BME280;51446;53.850;10.662;2022-08-04T03:55:34;101294.72;;;20.61;78.10
64933;BME280;51446;53.850;10.662;2022-08-04T03:58:33;101295.19;;;20.85;76.30
64933;BME280;51446;53.850;10.662;2022-08-04T04:09:22;101291.63;;;20.86;77.94
64933;BME280;51446;53.850;10.662;2022-08-04T04:20:12;101288.81;;;19.85;83.58
64933;BME280;51446;53.850;10.662;2022-08-04T04:26:17;101289.03;;;20.28;82.90
64933;BME280;51446;53.850;10.662;2022-08-04T04:34:37;101280.88;;;20.39;81.93
64933;BME280;51446;53.850;10.662;2022-08-04T04:45:33;101283.56;;;20.36;83.11
64933;BME280;51446;53.850;10.662;2022-08-04T04:51:09;101277.63;;;20.20;85.06
64933;BME280;51446;53.850;10.662;2022-08-04T04:53:46;101269.50;;;20.28;85.45
64933;BME280;51446;53.850;10.662;2022-08-04T04:56:24;101277.38;;;20.36;85.67
64933;BME280;51446;53.850;10.662;2022-08-04T04:58:53;101280.63;;;20.53;85.13
64933;BME280;51446;53.850;10.662;2022-08-04T05:04:20;101269.75;;;20.64;84.46
64933;BME280;51446;53.850;10.662;2022-08-04T05:07:05;101265.25;;;20.71;84.33
64933;BME280;51446;53.850;10.662;2022-08-04T05:10:08;101262.41;;;20.80;84.44
64933;BME280;51446;53.850;10.662;2022-08-04T05:12:51;101265.66;;;20.98;84.24
64933;BME280;51446;53.850;10.662;2022-08-04T05:15:28;101269.09;;;21.03;84.80
64933;BME280;51446;53.850;10.662;2022-08-04T05:17:56;101261.56;;;21.23;84.20
64933;BME280;51446;53.850;10.662;2022-08-04T05:20:26;101265.44;;;21.52;83.16
64933;BME280;51446;53.850;10.662;2022-08-04T05:23:24;101263.22;;;21.71;82.18
64933;BME280;51446;53.850;10.662;2022-08-04T05:25:55;101254.91;;;21.83;80.94
64933;BME280;51446;53.850;10.662;2022-08-04T05:28:42;101258.53;;;21.82;81.10
64933;BME280;51446;53.850;10.662;2022-08-04T05:31:19;101262.25;;;21.75;81.71
64933;BME280;51446;53.850;10.662;2022-08-04T05:33:48;101259.56;;;21.77;82.81
64933;BME280;51446;53.850;10.662;2022-08-04T05:36:19;101258.53;;;21.82;81.54
64933;BME280;51446;53.850;10.662;2022-08-04T05:38:48;101248.63;;;22.24;79.56
64933;BME280;51446;53.850;10.662;2022-08-04T05:41:15;101250.53;;;22.55;77.99
64933;BME280;51446;53.850;10.662;2022-08-04T05:43:42;101256.00;;;22.50;76.88
64933;BME280;51446;53.850;10.662;2022-08-04T05:46:10;101250.59;;;22.53;77.13
64933;BME280;51446;53.850;10.662;2022-08-04T05:48:36;101253.88;;;22.63;76.96
64933;BME280;51446;53.850;10.662;2022-08-04T05:51:03;101248.03;;;22.81;76.45
64933;BME280;51446;53.850;10.662;2022-08-04T05:53:29;101246.31;;;23.12;75.91
64933;BME280;51446;53.850;10.662;2022-08-04T05:55:56;101242.84;;;23.40;75.34
64933;BME280;51446;53.850;10.662;2022-08-04T05:58:22;101231.78;;;23.50;73.19
64933;BME280;51446;53.850;10.662;2022-08-04T06:00:48;101234.16;;;23.89;70.92
64933;BME280;51446;53.850;10.662;2022-08-04T06:03:17;101241.16;;;23.94;71.18
64933;BME280;51446;53.850;10.662;2022-08-04T06:05:45;101237.06;;;24.10;70.78
64933;BME280;51446;53.850;10.662;2022-08-04T06:08:11;101236.47;;;24.27;68.96
64933;BME280;51446;53.850;10.662;2022-08-04T06:10:38;101236.28;;;24.85;67.31
64933;BME280;51446;53.850;10.662;2022-08-04T06:13:07;101230.97;;;24.84;66.09
64933;BME280;51446;53.850;10.662;2022-08-04T06:15:36;101225.91;;;24.74;65.93
64933;BME280;51446;53.850;10.662;2022-08-04T06:18:05;101237.13;;;25.11;65.79
64933;BME280;51446;53.850;10.662;2022-08-04T06:20:33;101234.94;;;25.21;65.74
64933;BME280;51446;53.850;10.662;2022-08-04T06:23:03;101240.06;;;25.74;63.52
64933;BME280;51446;53.850;10.662;2022-08-04T06:25:36;101242.41;;;26.90;59.74
64933;BME280;51446;53.850;10.662;2022-08-04T06:28:04;101245.09;;;28.76;52.82
64933;BME280;51446;53.850;10.662;2022-08-04T06:30:31;101237.75;;;29.61;49.93
64933;BME280;51446;53.850;10.662;2022-08-04T06:32:58;101234.00;;;29.47;48.82
64933;BME280;51446;53.850;10.662;2022-08-04T06:35:27;101241.69;;;30.78;46.95
64933;BME280;51446;53.850;10.662;2022-08-04T06:37:55;101234.28;;;31.25;45.51
64933;BME280;51446;53.850;10.662;2022-08-04T06:40:21;101233.91;;;31.73;44.67
64933;BME280;51446;53.850;10.662;2022-08-04T06:42:48;101237.47;;;32.28;42.56
64933;BME280;51446;53.850;10.662;2022-08-04T06:45:15;101238.94;;;32.59;42.35
64933;BME280;51446;53.850;10.662;2022-08-04T06:47:41;101235.25;;;32.60;41.50
64933;BME280;51446;53.850;10.662;2022-08-04T06:50:08;101225.56;;;33.20;41.04
64933;BME280;51446;53.850;10.662;2022-08-04T06:52:34;101233.38;;;33.38;40.19
64933;BME280;51446;53.850;10.662;2022-08-04T06:55:01;101229.41;;;32.92;41.52
64933;BME280;51446;53.850;10.662;2022-08-04T06:57:29;101224.41;;;32.86;41.12
64933;BME280;51446;53.850;10.662;2022-08-04T07:00:11;101220.56;;;33.27;40.62
64933;BME280;51446;53.850;10.662;2022-08-04T07:02:48;101224.91;;;33.17;41.14
64933;BME280;51446;53.850;10.662;2022-08-04T07:05:15;101219.78;;;33.75;39.60
64933;BME280;51446;53.850;10.662;2022-08-04T07:07:41;101220.06;;;33.83;40.17
64933;BME280;51446;53.850;10.662;2022-08-04T07:10:08;101219.16;;;33.59;39.41
64933;BME280;51446;53.850;10.662;2022-08-04T07:12:34;101219.38;;;33.93;38.87
64933;BME280;51446;53.850;10.662;2022-08-04T07:15:00;101221.09;;;33.32;40.45
64933;BME280;51446;53.850;10.662;2022-08-04T07:17:27;101219.88;;;33.49;40.23
64933;BME280;51446;53.850;10.662;2022-08-04T07:19:52;101220.84;;;33.72;39.28
64933;BME280;51446;53.850;10.662;2022-08-04T07:22:18;101219.16;;;34.31;38.69
64933;BME280;51446;53.850;10.662;2022-08-04T07:24:44;101220.47;;;34.72;37.63
64933;BME280;51446;53.850;10.662;2022-08-04T07:27:10;101216.22;;;36.03;36.43
64933;BME280;51446;53.850;10.662;2022-08-04T07:29:36;101217.72;;;35.63;36.87
64933;BME280;51446;53.850;10.662;2022-08-04T07:32:03;101215.03;;;35.95;35.42
64933;BME280;51446;53.850;10.662;2022-08-04T07:34:30;101217.06;;;36.15;34.73
64933;BME280;51446;53.850;10.662;2022-08-04T07:36:58;101220.25;;;36.20;34.86
64933;BME280;51446;53.850;10.662;2022-08-04T07:39:27;101215.81;;;35.31;36.33
64933;BME280;51446;53.850;10.662;2022-08-04T07:41:53;101213.81;;;35.22;37.36
64933;BME280;51446;53.850;10.662;2022-08-04T07:44:19;101210.75;;;35.15;36.12
64933;BME280;51446;53.850;10.662;2022-08-04T07:46:45;101219.59;;;35.63;35.52
64933;BME280;51446;53.850;10.662;2022-08-04T07:49:11;101209.25;;;35.89;35.32
64933;BME280;51446;53.850;10.662;2022-08-04T07:51:37;101218.00;;;36.46;35.38
64933;BME280;51446;53.850;10.662;2022-08-04T07:54:04;101214.78;;;36.83;33.69
64933;BME280;51446;53.850;10.662;2022-08-04T07:56:32;101211.50;;;36.26;33.98
64933;BME280;51446;53.850;10.662;2022-08-04T07:58:59;101208.97;;;36.76;34.41
64933;BME280;51446;53.850;10.662;2022-08-04T08:01:25;101205.56;;;37.15;33.54
64933;BME280;51446;53.850;10.662;2022-08-04T08:03:52;101209.44;;;37.53;32.13
64933;BME280;51446;53.850;10.662;2022-08-04T08:06:18;101204.44;;;37.78;32.19
64933;BME280;51446;53.850;10.662;2022-08-04T08:08:44;101204.13;;;37.52;31.96
64933;BME280;51446;53.850;10.662;2022-08-04T08:11:09;101203.13;;;37.72;32.16
64933;BME280;51446;53.850;10.662;2022-08-04T08:13:35;101201.84;;;38.06;30.86
64933;BME280;51446;53.850;10.662;2022-08-04T08:16:02;101191.81;;;38.53;31.21
64933;BME280;51446;53.850;10.662;2022-08-04T08:18:29;101192.38;;;38.77;29.80
64933;BME280;51446;53.850;10.662;2022-08-04T08:20:55;101188.22;;;38.63;30.36
64933;BME280;51446;53.850;10.662;2022-08-04T08:23:21;101183.06;;;38.40;32.32
64933;BME280;51446;53.850;10.662;2022-08-04T08:25:46;101186.97;;;39.23;28.66
64933;BME280;51446;53.850;10.662;2022-08-04T08:28:12;101195.94;;;39.43;29.54
64933;BME280;51446;53.850;10.662;2022-08-04T08:30:37;101188.41;;;38.89;28.69
64933;BME280;51446;53.850;10.662;2022-08-04T08:33:08;101187.75;;;39.15;27.43
64933;BME280;51446;53.850;10.662;2022-08-04T08:38:38;101190.47;;;39.15;28.25
64933;BME280;51446;53.850;10.662;2022-08-04T08:47:03;101178.34;;;39.35;28.94
64933;BME280;51446;53.850;10.662;2022-08-04T08:53:06;101172.19;;;39.87;27.30
64933;BME280;51446;53.850;10.662;2022-08-04T08:55:39;101172.81;;;40.44;25.26
64933;BME280;51446;53.850;10.662;2022-08-04T08:58:31;101159.50;;;39.68;26.41
64933;BME280;51446;53.850;10.662;2022-08-04T09:01:30;101161.75;;;39.55;27.27
64933;BME280;51446;53.850;10.662;2022-08-04T09:04:35;101154.34;;;39.65;26.90
64933;BME280;51446;53.850;10.662;2022-08-04T09:07:12;101154.38;;;39.10;27.06
64933;BME280;51446;53.850;10.662;2022-08-04T09:12:44;101147.09;;;39.46;26.37
64933;BME280;51446;53.850;10.662;2022-08-04T09:15:14;101147.06;;;40.00;25.79
64933;BME280;51446;53.850;10.662;2022-08-04T09:18:06;101152.28;;;38.66;26.72
64933;BME280;51446;53.850;10.662;2022-08-04T09:23:21;101142.47;;;37.47;29.49
64933;BME280;51446;53.850;10.662;2022-08-04T09:25:53;101134.09;;;37.39;27.18
64933;BME280;51446;53.850;10.662;2022-08-04T09:28:24;101139.03;;;36.64;27.39
64933;BME280;51446;53.850;10.662;2022-08-04T09:31:00;101133.84;;;36.61;27.53
64933;BME280;51446;53.850;10.662;2022-08-04T09:33:30;101137.34;;;36.73;27.94
64933;BME280;51446;53.850;10.662;2022-08-04T09:39:09;101132.22;;;37.40;26.67
64933;BME280;51446;53.850;10.662;2022-08-04T09:44:22;101131.44;;;38.83;24.30
64933;BME280;51446;53.850;10.662;2022-08-04T09:47:02;101135.09;;;39.29;25.13
64933;BME280;51446;53.850;10.662;2022-08-04T09:49:36;101128.00;;;40.17;22.32
64933;BME280;51446;53.850;10.662;2022-08-04T09:52:19;101125.25;;;40.78;22.29
64933;BME280;51446;53.850;10.662;2022-08-04T09:55:17;101129.06;;;38.70;24.95
64933;BME280;51446;53.850;10.662;2022-08-04T09:58:04;101121.88;;;38.02;25.68
64933;BME280;51446;53.850;10.662;2022-08-04T10:00:38;101121.59;;;37.66;25.17
64933;BME280;51446;53.850;10.662;2022-08-04T10:03:05;101118.97;;;37.35;25.05
64933;BME280;51446;53.850;10.662;2022-08-04T10:06:07;101121.28;;;37.59;24.95
64933;BME280;51446;53.850;10.662;2022-08-04T10:08:41;101125.13;;;38.35;23.87
64933;BME280;51446;53.850;10.662;2022-08-04T10:11:12;101119.38;;;38.18;23.65
64933;BME280;51446;53.850;10.662;2022-08-04T10:13:46;101109.34;;;38.57;23.93
64933;BME280;51446;53.850;10.662;2022-08-04T10:21:41;101104.38;;;40.32;22.25
64933;BME280;51446;53.850;10.662;2022-08-04T10:24:18;101100.34;;;39.74;23.18
64933;BME280;51446;53.850;10.662;2022-08-04T10:26:52;101105.63;;;39.03;22.36
64933;BME280;51446;53.850;10.662;2022-08-04T10:29:27;101102.78;;;38.30;23.57
64933;BME280;51446;53.850;10.662;2022-08-04T10:34:53;101092.91;;;38.84;22.90
64933;BME280;51446;53.850;10.662;2022-08-04T10:37:28;101094.34;;;39.70;21.30
64933;BME280;51446;53.850;10.662;2022-08-04T10:40:02;101087.13;;;39.69;21.65
64933;BME280;51446;53.850;10.662;2022-08-04T10:46:11;101080.84;;;38.77;22.80
64933;BME280;51446;53.850;10.662;2022-08-04T10:49:03;101076.56;;;39.11;21.86
64933;BME280;51446;53.850;10.662;2022-08-04T10:51:50;101067.66;;;39.63;21.41
64933;BME280;51446;53.850;10.662;2022-08-04T10:54:31;101066.09;;;39.60;21.51
64933;BME280;51446;53.850;10.662;2022-08-04T10:57:14;101069.13;;;39.03;21.95
64933;BME280;51446;53.850;10.662;2022-08-04T10:59:48;101064.66;;;38.46;21.73
64933;BME280;51446;53.850;10.662;2022-08-04T11:02:32;101060.69;;;38.31;21.73
64933;BME280;51446;53.850;10.662;2022-08-04T11:07:52;101057.50;;;39.19;21.71
64933;BME280;51446;53.850;10.662;2022-08-04T11:10:22;101063.81;;;39.01;22.18
64933;BME280;51446;53.850;10.662;2022-08-04T11:12:55;101055.69;;;38.26;23.47
64933;BME280;51446;53.850;10.662;2022-08-04T11:15:24;101051.31;;;37.76;23.09
64933;BME280;51446;53.850;10.662;2022-08-04T11:17:56;101060.34;;;36.58;24.65
64933;BME280;51446;53.850;10.662;2022-08-04T11:20:34;101052.13;;;36.98;24.01
64933;BME280;51446;53.850;10.662;2022-08-04T11:30:52;101045.41;;;38.56;21.82
64933;BME280;51446;53.850;10.662;2022-08-04T11:36:02;101037.66;;;37.27;22.49
64933;BME280;51446;53.850;10.662;2022-08-04T11:38:45;101036.56;;;37.97;22.26
64933;BME280;51446;53.850;10.662;2022-08-04T11:41:18;101047.22;;;36.52;23.66
64933;BME280;51446;53.850;10.662;2022-08-04T11:43:57;101038.19;;;36.20;25.05
64933;BME280;51446;53.850;10.662;2022-08-04T11:46:42;101032.28;;;35.94;25.50
64933;BME280;51446;53.850;10.662;2022-08-04T11:49:20;101039.97;;;36.00;24.79
64933;BME280;51446;53.850;10.662;2022-08-04T11:51:49;101049.53;;;37.17;24.66
64933;BME280;51446;53.850;10.662;2022-08-04T11:54:15;101046.13;;;37.24;23.69
64933;BME280;51446;53.850;10.662;2022-08-04T11:56:41;101033.59;;;37.51;22.99
64933;BME280;51446;53.850;10.662;2022-08-04T11:59:06;101040.78;;;37.72;23.09
64933;BME280;51446;53.850;10.662;2022-08-04T12:04:57;101033.50;;;38.47;23.45
64933;BME280;51446;53.850;10.662;2022-08-04T12:10:25;101032.00;;;37.68;23.47
64933;BME280;51446;53.850;10.662;2022-08-04T12:18:33;101025.94;;;38.31;23.43
64933;BME280;51446;53.850;10.662;2022-08-04T12:21:12;101019.91;;;37.51;24.02
64933;BME280;51446;53.850;10.662;2022-08-04T12:23:39;101009.00;;;37.41;24.33
64933;BME280;51446;53.850;10.662;2022-08-04T12:26:09;101009.13;;;37.20;24.57
64933;BME280;51446;53.850;10.662;2022-08-04T12:28:40;101009.47;;;36.76;24.16
64933;BME280;51446;53.850;10.662;2022-08-04T12:31:34;101003.53;;;36.42;25.72
64933;BME280;51446;53.850;10.662;2022-08-04T12:34:23;101000.03;;;36.90;25.11
64933;BME280;51446;53.850;10.662;2022-08-04T12:39:53;100991.13;;;36.78;25.83
64933;BME280;51446;53.850;10.662;2022-08-04T12:42:44;100990.22;;;36.68;25.63
64933;BME280;51446;53.850;10.662;2022-08-04T12:45:12;100980.78;;;37.21;24.24
64933;BME280;51446;53.850;10.662;2022-08-04T12:47:39;100977.69;;;36.75;22.93
64933;BME280;51446;53.850;10.662;2022-08-04T12:50:06;100979.91;;;36.91;23.52
64933;BME280;51446;53.850;10.662;2022-08-04T12:52:45;100967.97;;;36.32;24.16
64933;BME280;51446;53.850;10.662;2022-08-04T12:55:11;100963.44;;;36.62;23.90
64933;BME280;51446;53.850;10.662;2022-08-04T12:57:39;100969.75;;;36.12;23.89
64933;BME280;51446;53.850;10.662;2022-08-04T13:00:06;100957.09;;;36.11;24.37
64933;BME280;51446;53.850;10.662;2022-08-04T13:02:38;100960.09;;;35.77;24.51
64933;BME280;51446;53.850;10.662;2022-08-04T13:05:06;100958.53;;;36.15;23.89
64933;BME280;51446;53.850;10.662;2022-08-04T13:07:42;100946.50;;;36.18;24.62
64933;BME280;51446;53.850;10.662;2022-08-04T13:10:11;100944.44;;;36.41;23.87
64933;BME280;51446;53.850;10.662;2022-08-04T13:12:38;100947.59;;;36.46;23.81
64933;BME280;51446;53.850;10.662;2022-08-04T13:15:15;100936.97;;;36.53;23.25
64933;BME280;51446;53.850;10.662;2022-08-04T13:20:13;100923.50;;;36.20;23.79
64933;BME280;51446;53.850;10.662;2022-08-04T13:22:39;100933.22;;;36.03;23.43
64933;BME280;51446;53.850;10.662;2022-08-04T13:25:05;100934.50;;;35.99;24.21
64933;BME280;51446;53.850;10.662;2022-08-04T13:27:30;100928.03;;;36.60;23.10
64933;BME280;51446;53.850;10.662;2022-08-04T13:29:56;100921.50;;;36.22;22.73
64933;BME280;51446;53.850;10.662;2022-08-04T13:32:23;100931.69;;;36.20;23.51
64933;BME280;51446;53.850;10.662;2022-08-04T13:34:51;100919.03;;;36.19;23.61
64933;BME280;51446;53.850;10.662;2022-08-04T13:37:20;100919.53;;;35.93;23.63
64933;BME280;51446;53.850;10.662;2022-08-04T13:39:49;100914.16;;;35.51;24.27
64933;BME280;51446;53.850;10.662;2022-08-04T13:42:15;100914.53;;;35.25;24.26
64933;BME280;51446;53.850;10.662;2022-08-04T13:44:44;100902.94;;;35.12;24.20
64933;BME280;51446;53.850;10.662;2022-08-04T13:47:23;100905.31;;;35.26;24.30
64933;BME280;51446;53.850;10.662;2022-08-04T13:50:25;100905.09;;;36.22;24.16
64933;BME280;51446;53.850;10.662;2022-08-04T13:52:54;100896.00;;;36.02;22.97
64933;BME280;51446;53.850;10.662;2022-08-04T13:55:37;100892.25;;;35.72;23.64
64933;BME280;51446;53.850;10.662;2022-08-04T13:58:08;100895.06;;;35.51;24.32
64933;BME280;51446;53.850;10.662;2022-08-04T14:00:43;100891.94;;;35.14;25.58
64933;BME280;51446;53.850;10.662;2022-08-04T14:03:13;100885.50;;;35.03;25.00
64933;BME280;51446;53.850;10.662;2022-08-04T14:05:40;100877.69;;;35.10;25.24
64933;BME280;51446;53.850;10.662;2022-08-04T14:08:17;100878.19;;;35.67;24.53
64933;BME280;51446;53.850;10.662;2022-08-04T14:10:52;100871.63;;;35.80;23.83
64933;BME280;51446;53.850;10.662;2022-08-04T14:13:27;100870.72;;;35.69;23.80
64933;BME280;51446;53.850;10.662;2022-08-04T14:15:53;100869.09;;;35.15;23.77
64933;BME280;51446;53.850;10.662;2022-08-04T14:18:24;100858.66;;;34.78;24.57
64933;BME280;51446;53.850;10.662;2022-08-04T14:21:05;100860.25;;;34.69;25.21
64933;BME280;51446;53.850;10.662;2022-08-04T14:26:31;100850.38;;;34.79;25.48
64933;BME280;51446;53.850;10.662;2022-08-04T14:29:12;100851.69;;;35.27;25.61
64933;BME280;51446;53.850;10.662;2022-08-04T14:31:38;100839.44;;;35.21;24.52
64933;BME280;51446;53.850;10.662;2022-08-04T14:34:04;100839.13;;;35.15;24.66
64933;BME280;51446;53.850;10.662;2022-08-04T14:36:40;100836.66;;;35.64;24.87
64933;BME280;51446;53.850;10.662;2022-08-04T14:39:07;100839.88;;;35.78;24.94
64933;BME280;51446;53.850;10.662;2022-08-04T14:41:49;100839.28;;;35.75;24.05
64933;BME280;51446;53.850;10.662;2022-08-04T14:44:15;100841.69;;;35.68;24.36
64933;BME280;51446;53.850;10.662;2022-08-04T14:46:51;100840.03;;;35.46;23.37
64933;BME280;51446;53.850;10.662;2022-08-04T14:49:17;100838.28;;;35.35;24.06
64933;BME280;51446;53.850;10.662;2022-08-04T14:51:52;100842.03;;;35.44;24.20
64933;BME280;51446;53.850;10.662;2022-08-04T14:54:26;100838.22;;;35.56;24.19
64933;BME280;51446;53.850;10.662;2022-08-04T14:56:55;100836.47;;;35.55;25.00
64933;BME280;51446;53.850;10.662;2022-08-04T14:59:22;100841.25;;;36.04;24.94
64933;BME280;51446;53.850;10.662;2022-08-04T15:01:49;100838.50;;;36.35;23.79
64933;BME280;51446;53.850;10.662;2022-08-04T15:04:15;100827.13;;;36.29;23.82
64933;BME280;51446;53.850;10.662;2022-08-04T15:06:40;100840.44;;;36.23;23.87
64933;BME280;51446;53.850;10.662;2022-08-04T15:09:09;100837.91;;;35.81;24.10
64933;BME280;51446;53.850;10.662;2022-08-04T15:11:35;100838.22;;;35.87;23.87
64933;BME280;51446;53.850;10.662;2022-08-04T15:14:03;100838.44;;;35.74;24.31
64933;BME280;51446;53.850;10.662;2022-08-04T15:16:30;100836.00;;;35.40;25.24
64933;BME280;51446;53.850;10.662;2022-08-04T15:18:56;100842.03;;;35.23;25.07
64933;BME280;51446;53.850;10.662;2022-08-04T15:21:22;100850.56;;;35.08;25.42
64933;BME280;51446;53.850;10.662;2022-08-04T15:23:49;100850.34;;;35.00;25.38
64933;BME280;51446;53.850;10.662;2022-08-04T15:26:21;100848.03;;;34.96;25.45
64933;BME280;51446;53.850;10.662;2022-08-04T15:28:51;100843.69;;;34.72;25.61
64933;BME280;51446;53.850;10.662;2022-08-04T15:31:19;100840.44;;;34.46;25.53
64933;BME280;51446;53.850;10.662;2022-08-04T15:33:47;100848.09;;;34.52;25.73
64933;BME280;51446;53.850;10.662;2022-08-04T15:37:00;100845.94;;;34.34;26.30
64933;BME280;51446;53.850;10.662;2022-08-04T15:39:14;100852.25;;;34.23;26.27
64933;BME280;51446;53.850;10.662;2022-08-04T15:41:57;100847.88;;;33.88;27.71
64933;BME280;51446;53.850;10.662;2022-08-04T15:47:16;100876.69;;;31.88;38.96
64933;BME280;51446;53.850;10.662;2022-08-04T15:49:43;100880.44;;;30.95;44.28